sensor_id;sensor_type;location;lat;lon;timestamp;temperature;humidity
66271;DHT22;53063;39.614;8.814;2023-05-07T00:00:38;17.00;63.50
66271;DHT22;53063;39.614;8.814;2023-05-07T00:03:05;16.90;64.00
66271;DHT22;53063;39.614;8.814;2023-05-07T00:05:32;16.90;63.50
66271;DHT22;53063;39.614;8.814;2023-05-07T00:07:58;16.80;63.60
66271;DHT22;53063;39.614;8.814;2023-05-07T00:10:24;16.80;63.30
66271;DHT22;53063;39.614;8.814;2023-05-07T00:12:51;16.90;63.20
66271;DHT22;53063;39.614;8.814;2023-05-07T00:15:16;16.80;63.40
66271;DHT22;53063;39.614;8.814;2023-05-07T00:17:42;16.80;63.50
66271;DHT22;53063;39.614;8.814;2023-05-07T00:20:09;16.80;63.50
66271;DHT22;53063;39.614;8.814;2023-05-07T00:22:35;16.70;63.40
66271;DHT22;53063;39.614;8.814;2023-05-07T00:25:01;16.60;63.30
66271;DHT22;53063;39.614;8.814;2023-05-07T00:27:27;16.60;63.60
66271;DHT22;53063;39.614;8.814;2023-05-07T00:29:52;16.50;63.80
66271;DHT22;53063;39.614;8.814;2023-05-07T00:32:18;16.50;64.20
66271;DHT22;53063;39.614;8.814;2023-05-07T00:34:45;16.60;63.30
66271;DHT22;53063;39.614;8.814;2023-05-07T00:37:10;16.50;62.70
66271;DHT22;53063;39.614;8.814;2023-05-07T00:39:37;16.50;62.40
66271;DHT22;53063;39.614;8.814;2023-05-07T00:42:04;16.40;64.20
66271;DHT22;53063;39.614;8.814;2023-05-07T00:44:29;16.20;65.10
66271;DHT22;53063;39.614;8.814;2023-05-07T00:46:57;16.40;63.70
66271;DHT22;53063;39.614;8.814;2023-05-07T00:49:31;16.30;63.60
66271;DHT22;53063;39.614;8.814;2023-05-07T00:51:59;16.40;63.40
66271;DHT22;53063;39.614;8.814;2023-05-07T00:54:26;16.40;63.30
66271;DHT22;53063;39.614;8.814;2023-05-07T00:56:52;16.40;62.60
66271;DHT22;53063;39.614;8.814;2023-05-07T00:59:18;16.30;63.20
66271;DHT22;53063;39.614;8.814;2023-05-07T01:01:44;16.30;63.50
66271;DHT22;53063;39.614;8.814;2023-05-07T01:04:10;16.00;64.40
66271;DHT22;53063;39.614;8.814;2023-05-07T01:06:37;15.70;65.50
66271;DHT22;53063;39.614;8.814;2023-05-07T01:09:03;15.70;65.60
66271;DHT22;53063;39.614;8.814;2023-05-07T01:11:30;15.70;65.60
66271;DHT22;53063;39.614;8.814;2023-05-07T01:13:58;15.60;66.50
66271;DHT22;53063;39.614;8.814;2023-05-07T01:16:24;15.50;66.90
66271;DHT22;53063;39.614;8.814;2023-05-07T01:18:51;15.50;67.30
66271;DHT22;53063;39.614;8.814;2023-05-07T01:21:17;15.50;67.40
66271;DHT22;53063;39.614;8.814;2023-05-07T01:23:44;15.50;67.50
66271;DHT22;53063;39.614;8.814;2023-05-07T01:26:11;15.40;67.70
66271;DHT22;53063;39.614;8.814;2023-05-07T01:28:37;15.40;67.20
66271;DHT22;53063;39.614;8.814;2023-05-07T01:31:04;15.40;67.40
66271;DHT22;53063;39.614;8.814;2023-05-07T01:33:34;15.50;67.00
66271;DHT22;53063;39.614;8.814;2023-05-07T01:36:03;15.60;66.90
66271;DHT22;53063;39.614;8.814;2023-05-07T01:38:32;15.50;66.80
66271;DHT22;53063;39.614;8.814;2023-05-07T01:40:58;15.30;67.20
66271;DHT22;53063;39.614;8.814;2023-05-07T01:43:25;15.30;67.90
66271;DHT22;53063;39.614;8.814;2023-05-07T01:45:51;15.20;68.40
66271;DHT22;53063;39.614;8.814;2023-05-07T01:48:18;15.30;68.00
66271;DHT22;53063;39.614;8.814;2023-05-07T01:50:45;15.30;67.70
66271;DHT22;53063;39.614;8.814;2023-05-07T01:53:12;15.30;67.70
66271;DHT22;53063;39.614;8.814;2023-05-07T01:55:38;15.40;67.70
66271;DHT22;53063;39.614;8.814;2023-05-07T01:58:04;15.20;68.10
66271;DHT22;53063;39.614;8.814;2023-05-07T02:00:30;15.20;68.00
66271;DHT22;53063;39.614;8.814;2023-05-07T02:02:56;15.30;67.30
66271;DHT22;53063;39.614;8.814;2023-05-07T02:05:34;15.40;66.80
66271;DHT22;53063;39.614;8.814;2023-05-07T02:08:06;15.50;66.40
66271;DHT22;53063;39.614;8.814;2023-05-07T02:10:32;15.50;65.80
66271;DHT22;53063;39.614;8.814;2023-05-07T02:12:58;15.50;66.10
66271;DHT22;53063;39.614;8.814;2023-05-07T02:15:27;15.60;64.90
66271;DHT22;53063;39.614;8.814;2023-05-07T02:18:03;15.70;64.50
66271;DHT22;53063;39.614;8.814;2023-05-07T02:20:29;15.80;63.90
66271;DHT22;53063;39.614;8.814;2023-05-07T02:22:56;15.80;63.20
66271;DHT22;53063;39.614;8.814;2023-05-07T02:25:22;15.90;62.90
66271;DHT22;53063;39.614;8.814;2023-05-07T02:27:48;15.80;62.80
66271;DHT22;53063;39.614;8.814;2023-05-07T02:30:15;15.80;62.50
66271;DHT22;53063;39.614;8.814;2023-05-07T02:32:41;15.90;62.10
66271;DHT22;53063;39.614;8.814;2023-05-07T02:35:07;16.00;61.60
66271;DHT22;53063;39.614;8.814;2023-05-07T02:37:33;16.00;61.20
66271;DHT22;53063;39.614;8.814;2023-05-07T02:40:00;16.00;61.30
66271;DHT22;53063;39.614;8.814;2023-05-07T02:42:26;16.00;61.40
66271;DHT22;53063;39.614;8.814;2023-05-07T02:44:52;16.00;61.40
66271;DHT22;53063;39.614;8.814;2023-05-07T02:47:19;15.90;61.60
66271;DHT22;53063;39.614;8.814;2023-05-07T02:49:45;16.00;61.30
66271;DHT22;53063;39.614;8.814;2023-05-07T02:52:11;16.00;60.90
66271;DHT22;53063;39.614;8.814;2023-05-07T02:54:37;16.00;61.10
66271;DHT22;53063;39.614;8.814;2023-05-07T02:57:03;15.90;61.40
66271;DHT22;53063;39.614;8.814;2023-05-07T02:59:29;15.90;61.90
66271;DHT22;53063;39.614;8.814;2023-05-07T03:01:56;15.80;61.50
66271;DHT22;53063;39.614;8.814;2023-05-07T03:04:22;15.60;63.10
66271;DHT22;53063;39.614;8.814;2023-05-07T03:06:48;15.40;63.80
66271;DHT22;53063;39.614;8.814;2023-05-07T03:09:14;15.40;64.60
66271;DHT22;53063;39.614;8.814;2023-05-07T03:11:40;15.30;64.60
66271;DHT22;53063;39.614;8.814;2023-05-07T03:14:06;15.30;64.40
66271;DHT22;53063;39.614;8.814;2023-05-07T03:16:32;15.50;63.70
66271;DHT22;53063;39.614;8.814;2023-05-07T03:18:58;15.50;63.60
66271;DHT22;53063;39.614;8.814;2023-05-07T03:21:24;15.40;63.80
66271;DHT22;53063;39.614;8.814;2023-05-07T03:23:52;15.50;63.40
66271;DHT22;53063;39.614;8.814;2023-05-07T03:26:18;15.40;63.80
66271;DHT22;53063;39.614;8.814;2023-05-07T03:28:44;15.20;64.20
66271;DHT22;53063;39.614;8.814;2023-05-07T03:31:13;15.30;64.00
66271;DHT22;53063;39.614;8.814;2023-05-07T03:33:56;15.30;63.80
66271;DHT22;53063;39.614;8.814;2023-05-07T03:36:24;15.20;64.00
66271;DHT22;53063;39.614;8.814;2023-05-07T03:38:52;15.20;64.20
66271;DHT22;53063;39.614;8.814;2023-05-07T03:41:21;15.20;64.40
66271;DHT22;53063;39.614;8.814;2023-05-07T03:43:47;15.20;64.60
66271;DHT22;53063;39.614;8.814;2023-05-07T03:46:14;15.10;65.10
66271;DHT22;53063;39.614;8.814;2023-05-07T03:48:40;14.90;66.00
66271;DHT22;53063;39.614;8.814;2023-05-07T03:51:06;14.80;66.50
66271;DHT22;53063;39.614;8.814;2023-05-07T03:53:33;14.70;66.90
66271;DHT22;53063;39.614;8.814;2023-05-07T03:55:59;14.70;67.40
66271;DHT22;53063;39.614;8.814;2023-05-07T03:58:26;14.60;67.90
66271;DHT22;53063;39.614;8.814;2023-05-07T04:00:56;14.50;68.40
66271;DHT22;53063;39.614;8.814;2023-05-07T04:03:26;14.50;68.90
66271;DHT22;53063;39.614;8.814;2023-05-07T04:05:54;14.50;69.00
66271;DHT22;53063;39.614;8.814;2023-05-07T04:08:21;14.50;69.10
66271;DHT22;53063;39.614;8.814;2023-05-07T04:10:55;14.80;68.60
66271;DHT22;53063;39.614;8.814;2023-05-07T04:13:22;15.40;66.20
66271;DHT22;53063;39.614;8.814;2023-05-07T04:15:49;15.60;65.20
66271;DHT22;53063;39.614;8.814;2023-05-07T04:18:17;15.70;64.90
66271;DHT22;53063;39.614;8.814;2023-05-07T04:20:45;15.90;63.90
66271;DHT22;53063;39.614;8.814;2023-05-07T04:23:13;16.10;62.60
66271;DHT22;53063;39.614;8.814;2023-05-07T04:25:40;16.20;62.10
66271;DHT22;53063;39.614;8.814;2023-05-07T04:28:19;16.20;61.80
66271;DHT22;53063;39.614;8.814;2023-05-07T04:30:45;16.30;61.60
66271;DHT22;53063;39.614;8.814;2023-05-07T04:33:11;16.20;61.80
66271;DHT22;53063;39.614;8.814;2023-05-07T04:35:40;16.30;61.60
66271;DHT22;53063;39.614;8.814;2023-05-07T04:38:05;16.30;61.30
66271;DHT22;53063;39.614;8.814;2023-05-07T04:40:31;16.30;61.20
66271;DHT22;53063;39.614;8.814;2023-05-07T04:42:59;16.30;61.30
66271;DHT22;53063;39.614;8.814;2023-05-07T04:45:28;16.30;61.20
66271;DHT22;53063;39.614;8.814;2023-05-07T04:47:54;16.40;61.30
66271;DHT22;53063;39.614;8.814;2023-05-07T04:50:20;16.40;61.10
66271;DHT22;53063;39.614;8.814;2023-05-07T04:52:49;16.40;60.90
66271;DHT22;53063;39.614;8.814;2023-05-07T04:55:16;16.40;60.80
66271;DHT22;53063;39.614;8.814;2023-05-07T04:57:42;16.50;60.50
66271;DHT22;53063;39.614;8.814;2023-05-07T05:00:10;16.50;60.50
66271;DHT22;53063;39.614;8.814;2023-05-07T05:02:41;16.60;60.50
66271;DHT22;53063;39.614;8.814;2023-05-07T05:05:07;16.70;60.10
66271;DHT22;53063;39.614;8.814;2023-05-07T05:07:34;16.70;60.20
66271;DHT22;53063;39.614;8.814;2023-05-07T05:10:02;16.70;60.20
66271;DHT22;53063;39.614;8.814;2023-05-07T05:12:30;16.80;60.20
66271;DHT22;53063;39.614;8.814;2023-05-07T05:14:58;16.80;60.00
66271;DHT22;53063;39.614;8.814;2023-05-07T05:17:24;16.90;60.00
66271;DHT22;53063;39.614;8.814;2023-05-07T05:19:50;17.00;59.40
66271;DHT22;53063;39.614;8.814;2023-05-07T05:22:16;17.10;58.40
66271;DHT22;53063;39.614;8.814;2023-05-07T05:24:42;17.20;58.50
66271;DHT22;53063;39.614;8.814;2023-05-07T05:27:08;17.20;58.30
66271;DHT22;53063;39.614;8.814;2023-05-07T05:29:34;17.30;58.30
66271;DHT22;53063;39.614;8.814;2023-05-07T05:32:01;17.30;58.30
66271;DHT22;53063;39.614;8.814;2023-05-07T05:34:29;17.40;58.00
66271;DHT22;53063;39.614;8.814;2023-05-07T05:36:56;17.50;58.00
66271;DHT22;53063;39.614;8.814;2023-05-07T05:39:23;17.60;57.50
66271;DHT22;53063;39.614;8.814;2023-05-07T05:41:49;17.60;57.80
66271;DHT22;53063;39.614;8.814;2023-05-07T05:44:16;17.80;57.60
66271;DHT22;53063;39.614;8.814;2023-05-07T05:46:42;17.90;57.10
66271;DHT22;53063;39.614;8.814;2023-05-07T05:49:08;18.00;57.10
66271;DHT22;53063;39.614;8.814;2023-05-07T05:51:35;18.10;56.80
66271;DHT22;53063;39.614;8.814;2023-05-07T05:54:01;18.30;56.40
66271;DHT22;53063;39.614;8.814;2023-05-07T05:56:27;18.70;55.70
66271;DHT22;53063;39.614;8.814;2023-05-07T05:58:53;19.00;54.50
66271;DHT22;53063;39.614;8.814;2023-05-07T06:01:19;19.00;53.60
66271;DHT22;53063;39.614;8.814;2023-05-07T06:03:45;19.50;53.20
66271;DHT22;53063;39.614;8.814;2023-05-07T06:06:14;19.60;52.80
66271;DHT22;53063;39.614;8.814;2023-05-07T06:08:42;19.20;53.80
66271;DHT22;53063;39.614;8.814;2023-05-07T06:11:09;19.40;54.20
66271;DHT22;53063;39.614;8.814;2023-05-07T06:13:37;20.00;52.70
66271;DHT22;53063;39.614;8.814;2023-05-07T06:16:04;20.70;50.50
66271;DHT22;53063;39.614;8.814;2023-05-07T06:18:30;21.00;50.10
66271;DHT22;53063;39.614;8.814;2023-05-07T06:20:56;21.10;50.00
66271;DHT22;53063;39.614;8.814;2023-05-07T06:23:25;21.10;49.40
66271;DHT22;53063;39.614;8.814;2023-05-07T06:25:51;21.40;49.30
66271;DHT22;53063;39.614;8.814;2023-05-07T06:28:21;21.70;48.60
66271;DHT22;53063;39.614;8.814;2023-05-07T06:30:47;21.90;47.90
66271;DHT22;53063;39.614;8.814;2023-05-07T06:33:16;22.20;47.90
66271;DHT22;53063;39.614;8.814;2023-05-07T06:35:42;22.30;47.30
66271;DHT22;53063;39.614;8.814;2023-05-07T06:38:08;22.70;46.50
66271;DHT22;53063;39.614;8.814;2023-05-07T06:40:34;23.10;45.70
66271;DHT22;53063;39.614;8.814;2023-05-07T06:43:00;23.20;45.60
66271;DHT22;53063;39.614;8.814;2023-05-07T06:45:40;23.40;45.10
66271;DHT22;53063;39.614;8.814;2023-05-07T06:48:08;23.60;44.00
66271;DHT22;53063;39.614;8.814;2023-05-07T06:50:43;23.90;43.20
66271;DHT22;53063;39.614;8.814;2023-05-07T06:53:10;23.90;43.60
66271;DHT22;53063;39.614;8.814;2023-05-07T06:55:36;23.60;42.90
66271;DHT22;53063;39.614;8.814;2023-05-07T06:58:04;24.20;42.80
66271;DHT22;53063;39.614;8.814;2023-05-07T07:00:32;24.20;42.40
66271;DHT22;53063;39.614;8.814;2023-05-07T07:02:58;23.90;42.50
66271;DHT22;53063;39.614;8.814;2023-05-07T07:05:27;23.20;43.50
66271;DHT22;53063;39.614;8.814;2023-05-07T07:07:54;22.60;45.20
66271;DHT22;53063;39.614;8.814;2023-05-07T07:10:21;22.10;46.30
66271;DHT22;53063;39.614;8.814;2023-05-07T07:12:49;22.00;46.50
66271;DHT22;53063;39.614;8.814;2023-05-07T07:15:16;21.80;46.00
66271;DHT22;53063;39.614;8.814;2023-05-07T07:17:42;21.90;46.50
66271;DHT22;53063;39.614;8.814;2023-05-07T07:20:08;22.00;46.00
66271;DHT22;53063;39.614;8.814;2023-05-07T07:22:34;22.40;45.60
66271;DHT22;53063;39.614;8.814;2023-05-07T07:25:00;22.60;45.00
66271;DHT22;53063;39.614;8.814;2023-05-07T07:27:26;22.50;45.20
66271;DHT22;53063;39.614;8.814;2023-05-07T07:29:52;22.70;45.10
66271;DHT22;53063;39.614;8.814;2023-05-07T07:32:18;22.70;45.10
66271;DHT22;53063;39.614;8.814;2023-05-07T07:34:46;22.80;44.50
66271;DHT22;53063;39.614;8.814;2023-05-07T07:37:12;22.90;44.20
66271;DHT22;53063;39.614;8.814;2023-05-07T07:39:38;23.00;43.30
66271;DHT22;53063;39.614;8.814;2023-05-07T07:42:07;23.10;43.30
66271;DHT22;53063;39.614;8.814;2023-05-07T07:44:33;23.40;43.50
66271;DHT22;53063;39.614;8.814;2023-05-07T07:47:04;23.10;42.50
66271;DHT22;53063;39.614;8.814;2023-05-07T07:49:31;23.10;43.20
66271;DHT22;53063;39.614;8.814;2023-05-07T07:52:01;23.10;43.30
66271;DHT22;53063;39.614;8.814;2023-05-07T07:54:29;23.20;42.70
66271;DHT22;53063;39.614;8.814;2023-05-07T07:56:56;23.40;42.50
66271;DHT22;53063;39.614;8.814;2023-05-07T07:59:22;23.10;43.40
66271;DHT22;53063;39.614;8.814;2023-05-07T08:01:49;23.50;43.70
66271;DHT22;53063;39.614;8.814;2023-05-07T08:04:17;23.70;43.20
66271;DHT22;53063;39.614;8.814;2023-05-07T08:06:44;23.80;42.50
66271;DHT22;53063;39.614;8.814;2023-05-07T08:09:10;24.00;42.60
66271;DHT22;53063;39.614;8.814;2023-05-07T08:11:39;24.10;42.70
66271;DHT22;53063;39.614;8.814;2023-05-07T08:14:05;23.90;43.80
66271;DHT22;53063;39.614;8.814;2023-05-07T08:16:31;24.10;42.60
66271;DHT22;53063;39.614;8.814;2023-05-07T08:18:59;24.00;41.80
66271;DHT22;53063;39.614;8.814;2023-05-07T08:21:25;24.20;42.20
66271;DHT22;53063;39.614;8.814;2023-05-07T08:23:52;24.40;42.30
66271;DHT22;53063;39.614;8.814;2023-05-07T08:26:18;24.60;41.40
66271;DHT22;53063;39.614;8.814;2023-05-07T08:28:44;24.60;41.10
66271;DHT22;53063;39.614;8.814;2023-05-07T08:31:10;24.60;41.40
66271;DHT22;53063;39.614;8.814;2023-05-07T08:33:39;24.70;40.60
66271;DHT22;53063;39.614;8.814;2023-05-07T08:36:05;24.70;40.10
66271;DHT22;53063;39.614;8.814;2023-05-07T08:38:31;24.90;40.20
66271;DHT22;53063;39.614;8.814;2023-05-07T08:40:58;24.70;40.30
66271;DHT22;53063;39.614;8.814;2023-05-07T08:43:26;24.70;40.00
66271;DHT22;53063;39.614;8.814;2023-05-07T08:45:54;25.20;39.60
66271;DHT22;53063;39.614;8.814;2023-05-07T08:48:25;25.20;40.00
66271;DHT22;53063;39.614;8.814;2023-05-07T08:51:03;25.20;40.20
66271;DHT22;53063;39.614;8.814;2023-05-07T08:53:30;25.50;39.70
66271;DHT22;53063;39.614;8.814;2023-05-07T08:55:57;25.60;39.40
66271;DHT22;53063;39.614;8.814;2023-05-07T08:58:24;25.70;39.30
66271;DHT22;53063;39.614;8.814;2023-05-07T09:00:51;25.80;39.20
66271;DHT22;53063;39.614;8.814;2023-05-07T09:03:19;26.10;39.20
66271;DHT22;53063;39.614;8.814;2023-05-07T09:05:49;26.30;38.00
66271;DHT22;53063;39.614;8.814;2023-05-07T09:08:17;26.00;37.80
66271;DHT22;53063;39.614;8.814;2023-05-07T09:10:46;26.20;37.00
66271;DHT22;53063;39.614;8.814;2023-05-07T09:13:13;26.10;36.90
66271;DHT22;53063;39.614;8.814;2023-05-07T09:15:40;26.30;36.50
66271;DHT22;53063;39.614;8.814;2023-05-07T09:18:07;26.00;36.60
66271;DHT22;53063;39.614;8.814;2023-05-07T09:20:37;26.20;36.20
66271;DHT22;53063;39.614;8.814;2023-05-07T09:23:03;26.00;36.50
66271;DHT22;53063;39.614;8.814;2023-05-07T09:25:34;26.40;36.10
66271;DHT22;53063;39.614;8.814;2023-05-07T09:28:05;27.10;35.30
66271;DHT22;53063;39.614;8.814;2023-05-07T09:30:33;26.90;35.10
66271;DHT22;53063;39.614;8.814;2023-05-07T09:33:03;26.70;35.50
66271;DHT22;53063;39.614;8.814;2023-05-07T09:35:32;26.70;36.30
66271;DHT22;53063;39.614;8.814;2023-05-07T09:38:04;26.70;36.00
66271;DHT22;53063;39.614;8.814;2023-05-07T09:40:33;26.40;36.50
66271;DHT22;53063;39.614;8.814;2023-05-07T09:43:11;26.60;36.20
66271;DHT22;53063;39.614;8.814;2023-05-07T09:45:43;26.70;35.50
66271;DHT22;53063;39.614;8.814;2023-05-07T09:48:10;26.90;35.60
66271;DHT22;53063;39.614;8.814;2023-05-07T09:50:51;27.20;36.20
66271;DHT22;53063;39.614;8.814;2023-05-07T09:53:21;27.50;35.70
66271;DHT22;53063;39.614;8.814;2023-05-07T09:55:48;27.20;35.60
66271;DHT22;53063;39.614;8.814;2023-05-07T09:58:15;27.50;36.00
66271;DHT22;53063;39.614;8.814;2023-05-07T10:00:44;27.30;35.70
66271;DHT22;53063;39.614;8.814;2023-05-07T10:03:14;27.00;36.10
66271;DHT22;53063;39.614;8.814;2023-05-07T10:05:50;27.50;36.00
66271;DHT22;53063;39.614;8.814;2023-05-07T10:08:18;27.80;35.50
66271;DHT22;53063;39.614;8.814;2023-05-07T10:10:48;27.90;35.30
66271;DHT22;53063;39.614;8.814;2023-05-07T10:13:19;27.60;35.20
66271;DHT22;53063;39.614;8.814;2023-05-07T10:15:48;28.10;34.60
66271;DHT22;53063;39.614;8.814;2023-05-07T10:18:15;28.00;34.80
66271;DHT22;53063;39.614;8.814;2023-05-07T10:20:47;28.50;34.50
66271;DHT22;53063;39.614;8.814;2023-05-07T10:23:19;28.40;34.20
66271;DHT22;53063;39.614;8.814;2023-05-07T10:25:48;28.50;34.60
66271;DHT22;53063;39.614;8.814;2023-05-07T10:28:20;28.90;33.00
66271;DHT22;53063;39.614;8.814;2023-05-07T10:33:48;27.90;34.10
66271;DHT22;53063;39.614;8.814;2023-05-07T10:36:19;28.00;34.70
66271;DHT22;53063;39.614;8.814;2023-05-07T10:38:46;28.20;34.60
66271;DHT22;53063;39.614;8.814;2023-05-07T10:41:12;28.00;33.70
66271;DHT22;53063;39.614;8.814;2023-05-07T10:43:43;28.10;33.60
66271;DHT22;53063;39.614;8.814;2023-05-07T10:46:18;28.60;33.80
66271;DHT22;53063;39.614;8.814;2023-05-07T10:52:17;28.80;34.10
66271;DHT22;53063;39.614;8.814;2023-05-07T10:55:34;28.40;32.10
66271;DHT22;53063;39.614;8.814;2023-05-07T11:00:49;28.50;32.00
66271;DHT22;53063;39.614;8.814;2023-05-07T11:03:27;28.70;32.50
66271;DHT22;53063;39.614;8.814;2023-05-07T11:06:12;28.80;31.70
66271;DHT22;53063;39.614;8.814;2023-05-07T11:11:19;28.50;31.80
66271;DHT22;53063;39.614;8.814;2023-05-07T11:13:51;28.70;31.40
66271;DHT22;53063;39.614;8.814;2023-05-07T11:16:30;28.70;31.60
66271;DHT22;53063;39.614;8.814;2023-05-07T11:19:08;28.80;31.10
66271;DHT22;53063;39.614;8.814;2023-05-07T11:21:41;29.10;31.20
66271;DHT22;53063;39.614;8.814;2023-05-07T11:24:14;28.90;32.20
66271;DHT22;53063;39.614;8.814;2023-05-07T11:26:53;29.10;32.80
66271;DHT22;53063;39.614;8.814;2023-05-07T11:29:21;28.90;32.50
66271;DHT22;53063;39.614;8.814;2023-05-07T11:31:51;29.60;32.40
66271;DHT22;53063;39.614;8.814;2023-05-07T11:34:22;29.70;32.20
66271;DHT22;53063;39.614;8.814;2023-05-07T11:36:49;29.50;32.50
66271;DHT22;53063;39.614;8.814;2023-05-07T11:39:28;29.50;32.30
66271;DHT22;53063;39.614;8.814;2023-05-07T11:41:54;29.70;32.70
66271;DHT22;53063;39.614;8.814;2023-05-07T11:44:20;29.50;32.00
66271;DHT22;53063;39.614;8.814;2023-05-07T11:46:46;29.30;32.00
66271;DHT22;53063;39.614;8.814;2023-05-07T11:49:12;29.50;32.60
66271;DHT22;53063;39.614;8.814;2023-05-07T11:51:39;29.00;32.50
66271;DHT22;53063;39.614;8.814;2023-05-07T11:54:06;29.10;33.30
66271;DHT22;53063;39.614;8.814;2023-05-07T11:56:37;29.60;32.40
66271;DHT22;53063;39.614;8.814;2023-05-07T11:59:03;29.40;32.00
66271;DHT22;53063;39.614;8.814;2023-05-07T12:01:30;29.40;32.20
66271;DHT22;53063;39.614;8.814;2023-05-07T12:03:56;29.30;32.60
66271;DHT22;53063;39.614;8.814;2023-05-07T12:06:22;29.40;32.30
66271;DHT22;53063;39.614;8.814;2023-05-07T12:08:48;29.60;32.50
66271;DHT22;53063;39.614;8.814;2023-05-07T12:11:16;29.80;32.10
66271;DHT22;53063;39.614;8.814;2023-05-07T12:13:43;29.80;31.70
66271;DHT22;53063;39.614;8.814;2023-05-07T12:16:10;30.00;31.30
66271;DHT22;53063;39.614;8.814;2023-05-07T12:18:36;29.80;32.00
66271;DHT22;53063;39.614;8.814;2023-05-07T12:21:05;29.70;31.90
66271;DHT22;53063;39.614;8.814;2023-05-07T12:23:31;29.90;31.50
66271;DHT22;53063;39.614;8.814;2023-05-07T12:25:58;30.00;31.40
66271;DHT22;53063;39.614;8.814;2023-05-07T12:28:25;30.00;33.00
66271;DHT22;53063;39.614;8.814;2023-05-07T12:30:51;29.50;34.10
66271;DHT22;53063;39.614;8.814;2023-05-07T12:33:18;29.00;34.50
66271;DHT22;53063;39.614;8.814;2023-05-07T12:35:47;29.10;34.20
66271;DHT22;53063;39.614;8.814;2023-05-07T12:38:15;29.00;35.20
66271;DHT22;53063;39.614;8.814;2023-05-07T12:40:46;28.60;35.60
66271;DHT22;53063;39.614;8.814;2023-05-07T12:43:17;28.80;35.70
66271;DHT22;53063;39.614;8.814;2023-05-07T12:45:44;28.50;36.50
66271;DHT22;53063;39.614;8.814;2023-05-07T12:48:11;28.40;36.50
66271;DHT22;53063;39.614;8.814;2023-05-07T12:50:37;28.30;36.30
66271;DHT22;53063;39.614;8.814;2023-05-07T12:53:04;28.10;36.30
66271;DHT22;53063;39.614;8.814;2023-05-07T12:55:47;28.10;36.30
66271;DHT22;53063;39.614;8.814;2023-05-07T13:00:51;28.70;36.50
66271;DHT22;53063;39.614;8.814;2023-05-07T13:03:31;28.30;37.10
66271;DHT22;53063;39.614;8.814;2023-05-07T13:05:59;28.30;36.50
66271;DHT22;53063;39.614;8.814;2023-05-07T13:08:36;28.00;37.30
66271;DHT22;53063;39.614;8.814;2023-05-07T13:11:04;28.20;37.50
66271;DHT22;53063;39.614;8.814;2023-05-07T13:13:34;27.70;38.40
66271;DHT22;53063;39.614;8.814;2023-05-07T13:16:04;27.80;38.10
66271;DHT22;53063;39.614;8.814;2023-05-07T13:18:32;27.80;38.30
66271;DHT22;53063;39.614;8.814;2023-05-07T13:20:58;27.70;38.90
66271;DHT22;53063;39.614;8.814;2023-05-07T13:23:25;27.60;38.30
66271;DHT22;53063;39.614;8.814;2023-05-07T13:25:51;27.50;38.20
66271;DHT22;53063;39.614;8.814;2023-05-07T13:28:21;27.40;39.00
66271;DHT22;53063;39.614;8.814;2023-05-07T13:30:47;27.50;38.30
66271;DHT22;53063;39.614;8.814;2023-05-07T13:33:13;27.70;37.60
66271;DHT22;53063;39.614;8.814;2023-05-07T13:35:39;27.40;38.40
66271;DHT22;53063;39.614;8.814;2023-05-07T13:38:05;27.00;38.00
66271;DHT22;53063;39.614;8.814;2023-05-07T13:40:31;27.10;38.80
66271;DHT22;53063;39.614;8.814;2023-05-07T13:42:58;27.30;38.00
66271;DHT22;53063;39.614;8.814;2023-05-07T13:45:25;27.00;38.50
66271;DHT22;53063;39.614;8.814;2023-05-07T13:47:51;26.70;38.40
66271;DHT22;53063;39.614;8.814;2023-05-07T13:50:17;26.70;39.00
66271;DHT22;53063;39.614;8.814;2023-05-07T13:52:44;26.60;39.20
66271;DHT22;53063;39.614;8.814;2023-05-07T13:55:17;27.00;39.00
66271;DHT22;53063;39.614;8.814;2023-05-07T13:57:43;26.90;38.30
66271;DHT22;53063;39.614;8.814;2023-05-07T14:00:10;26.70;38.40
66271;DHT22;53063;39.614;8.814;2023-05-07T14:02:42;26.40;38.30
66271;DHT22;53063;39.614;8.814;2023-05-07T14:05:09;26.40;38.30
66271;DHT22;53063;39.614;8.814;2023-05-07T14:07:36;26.60;38.60
66271;DHT22;53063;39.614;8.814;2023-05-07T14:10:02;26.60;38.50
66271;DHT22;53063;39.614;8.814;2023-05-07T14:12:28;26.60;38.90
66271;DHT22;53063;39.614;8.814;2023-05-07T14:14:54;26.80;37.90
66271;DHT22;53063;39.614;8.814;2023-05-07T14:17:21;26.60;38.20
66271;DHT22;53063;39.614;8.814;2023-05-07T14:19:48;26.40;38.40
66271;DHT22;53063;39.614;8.814;2023-05-07T14:22:14;26.10;38.00
66271;DHT22;53063;39.614;8.814;2023-05-07T14:24:41;26.40;37.90
66271;DHT22;53063;39.614;8.814;2023-05-07T14:27:07;26.30;38.20
66271;DHT22;53063;39.614;8.814;2023-05-07T14:29:33;26.40;37.90
66271;DHT22;53063;39.614;8.814;2023-05-07T14:32:01;26.50;37.80
66271;DHT22;53063;39.614;8.814;2023-05-07T14:34:27;26.40;38.00
66271;DHT22;53063;39.614;8.814;2023-05-07T14:36:53;26.30;38.00
66271;DHT22;53063;39.614;8.814;2023-05-07T14:39:19;26.40;38.10
66271;DHT22;53063;39.614;8.814;2023-05-07T14:41:45;26.60;37.70
66271;DHT22;53063;39.614;8.814;2023-05-07T14:44:11;26.60;37.30
66271;DHT22;53063;39.614;8.814;2023-05-07T14:46:37;26.50;37.60
66271;DHT22;53063;39.614;8.814;2023-05-07T14:49:02;26.30;37.70
66271;DHT22;53063;39.614;8.814;2023-05-07T14:51:28;26.60;37.80
66271;DHT22;53063;39.614;8.814;2023-05-07T14:53:54;26.50;37.50
66271;DHT22;53063;39.614;8.814;2023-05-07T14:56:20;26.50;38.30
66271;DHT22;53063;39.614;8.814;2023-05-07T14:58:47;26.40;38.30
66271;DHT22;53063;39.614;8.814;2023-05-07T15:01:14;26.40;38.80
66271;DHT22;53063;39.614;8.814;2023-05-07T15:03:40;26.40;38.30
66271;DHT22;53063;39.614;8.814;2023-05-07T15:06:06;26.40;38.90
66271;DHT22;53063;39.614;8.814;2023-05-07T15:08:32;26.40;39.00
66271;DHT22;53063;39.614;8.814;2023-05-07T15:10:58;26.40;37.80
66271;DHT22;53063;39.614;8.814;2023-05-07T15:13:23;26.40;37.70
66271;DHT22;53063;39.614;8.814;2023-05-07T15:15:49;26.50;38.30
66271;DHT22;53063;39.614;8.814;2023-05-07T15:18:16;26.50;38.20
66271;DHT22;53063;39.614;8.814;2023-05-07T15:20:42;26.20;38.60
66271;DHT22;53063;39.614;8.814;2023-05-07T15:23:08;26.10;38.60
66271;DHT22;53063;39.614;8.814;2023-05-07T15:25:42;26.20;38.30
66271;DHT22;53063;39.614;8.814;2023-05-07T15:28:08;26.00;38.20
66271;DHT22;53063;39.614;8.814;2023-05-07T15:30:34;25.80;37.90
66271;DHT22;53063;39.614;8.814;2023-05-07T15:33:01;25.90;38.40
66271;DHT22;53063;39.614;8.814;2023-05-07T15:35:27;26.10;38.00
66271;DHT22;53063;39.614;8.814;2023-05-07T15:37:53;26.00;38.40
66271;DHT22;53063;39.614;8.814;2023-05-07T15:40:19;26.00;37.70
66271;DHT22;53063;39.614;8.814;2023-05-07T15:42:45;25.80;38.10
66271;DHT22;53063;39.614;8.814;2023-05-07T15:45:11;26.00;38.20
66271;DHT22;53063;39.614;8.814;2023-05-07T15:47:37;25.80;38.30